CPX965 Details

Departure: Liège Airport (EBLG)
Arrival: Ramstein Air Force Base (ETAR)
Route: LAREP UN852 DIK
Notes: EMPTY | NON-REVENUE REPOSITIONING LEG


Current Weather Information
EBLG 251050Z 30007KT 260V340 9999 -RA FEW025 BKN048 14/08 Q1019
ETAR 251056Z AUTO 36008KT 9999 BKN120 BKN190 20/08 A3001 RMK AO2 SLP163 T01970084 $